createdAt,value
2023-03-05T00:02:30.294Z,10.80
2023-03-05T00:09:21.443Z,15.40
2023-03-05T00:12:44.024Z,10.18
2023-03-05T00:16:07.443Z,9.18
2023-03-05T00:19:30.237Z,10.82
2023-03-05T00:22:53.019Z,12.25
2023-03-05T00:26:17.415Z,9.65
2023-03-05T00:29:40.054Z,9.97
2023-03-05T00:33:04.079Z,9.13
2023-03-05T00:36:26.679Z,8.35
2023-03-05T00:39:49.094Z,10.73
2023-03-05T00:43:13.257Z,13.15
2023-03-05T00:46:35.866Z,10.20
2023-03-05T00:49:58.992Z,13.85
2023-03-05T00:53:21.787Z,12.23
2023-03-05T00:56:45.065Z,9.88
2023-03-05T01:00:11.781Z,7.87
2023-03-05T01:03:34.595Z,12.27
2023-03-05T01:06:57.404Z,7.75
2023-03-05T01:10:19.851Z,9.75
2023-03-05T01:13:46.085Z,13.05
2023-03-05T01:17:11.057Z,9.93
2023-03-05T01:20:33.589Z,10.83
2023-03-05T01:23:56.074Z,11.43
2023-03-05T01:27:19.095Z,12.50
2023-03-05T01:30:41.540Z,14.57
2023-03-05T01:34:06.180Z,10.27
2023-03-05T01:37:28.609Z,15.23
2023-03-05T01:40:51.085Z,12.35
2023-03-05T01:44:23.100Z,14.13
2023-03-05T01:47:45.977Z,18.62
2023-03-05T01:51:09.738Z,13.80
2023-03-05T01:54:35.001Z,13.07
2023-03-05T01:57:59.553Z,11.93
2023-03-05T02:01:22.488Z,14.35
2023-03-05T02:04:47.532Z,9.27
2023-03-05T02:08:12.364Z,12.52
2023-03-05T02:11:35.325Z,8.90
2023-03-05T02:14:59.510Z,14.20
2023-03-05T02:18:22.098Z,17.77
2023-03-05T02:21:47.057Z,11.25
2023-03-05T02:25:17.978Z,20.25
2023-03-05T02:28:41.768Z,13.00
2023-03-05T02:32:04.410Z,11.52
2023-03-05T02:35:27.375Z,11.32
2023-03-05T02:38:53.008Z,13.43
2023-03-05T02:42:16.627Z,13.38
2023-03-05T02:45:39.385Z,11.63
2023-03-05T02:49:02.518Z,12.32
2023-03-05T02:52:25.648Z,11.27
2023-03-05T02:55:50.198Z,12.40
2023-03-05T02:59:12.743Z,16.50
2023-03-05T03:02:38.946Z,11.33
2023-03-05T03:06:01.204Z,12.02
2023-03-05T03:09:23.875Z,12.45
2023-03-05T03:12:47.756Z,17.75
2023-03-05T03:16:11.722Z,12.93
2023-03-05T03:19:33.933Z,12.05
2023-03-05T03:22:56.392Z,14.82
2023-03-05T03:26:19.378Z,11.05
2023-03-05T03:29:43.305Z,13.88
2023-03-05T03:33:05.755Z,13.33
2023-03-05T03:36:28.259Z,12.15
2023-03-05T03:39:50.713Z,14.48
2023-03-05T03:43:13.103Z,11.95
2023-03-05T03:46:37.444Z,10.88
2023-03-05T03:50:00.456Z,11.73
2023-03-05T03:53:22.848Z,10.07
2023-03-05T03:56:45.940Z,12.45
2023-03-05T04:00:10.250Z,11.80
2023-03-05T04:03:35.727Z,10.82
2023-03-05T04:06:58.614Z,12.80
2023-03-05T04:10:21.497Z,10.50
2023-03-05T04:13:44.421Z,9.93
2023-03-05T04:17:06.885Z,10.27
2023-03-05T04:20:30.983Z,22.87
2023-03-05T04:23:53.459Z,15.47
2023-03-05T04:27:15.939Z,14.38
2023-03-05T04:30:38.117Z,13.57
2023-03-05T04:34:00.871Z,12.65
2023-03-05T04:37:24.824Z,13.25
2023-03-05T04:40:47.647Z,11.83
2023-03-05T04:44:10.169Z,12.20
2023-03-05T04:47:32.693Z,11.65
2023-03-05T04:50:55.184Z,11.98
2023-03-05T04:54:19.141Z,10.55
2023-03-05T04:57:41.797Z,11.70
2023-03-05T05:01:04.726Z,14.25
2023-03-05T05:04:27.026Z,11.90
2023-03-05T05:07:49.835Z,14.18
2023-03-05T05:11:14.945Z,15.15
2023-03-05T05:14:37.735Z,24.43
2023-03-05T05:18:00.241Z,21.35
2023-03-05T05:21:22.845Z,16.48
2023-03-05T05:24:45.197Z,16.00
2023-03-05T05:28:08.991Z,15.20
2023-03-05T05:31:31.313Z,18.27
2023-03-05T05:34:55.665Z,16.23
2023-03-05T05:38:18.184Z,12.70
2023-03-05T05:41:43.426Z,13.38
2023-03-05T05:45:08.263Z,16.83
2023-03-05T05:48:31.168Z,13.43
2023-03-05T05:51:53.412Z,14.32
2023-03-05T05:55:15.937Z,13.82
2023-03-05T05:58:38.606Z,9.80
2023-03-05T06:02:02.640Z,14.55
2023-03-05T06:05:25.925Z,16.03
2023-03-05T06:08:47.974Z,16.95
2023-03-05T06:12:11.397Z,13.23
2023-03-05T06:15:34.057Z,14.45
2023-03-05T06:18:59.073Z,12.75
2023-03-05T06:22:21.501Z,13.73
2023-03-05T06:25:44.427Z,10.90
2023-03-05T06:29:06.916Z,15.70
2023-03-05T06:32:29.453Z,12.07
2023-03-05T06:35:53.491Z,22.80
2023-03-05T06:39:16.475Z,14.13
2023-03-05T06:42:39.044Z,17.08
2023-03-05T06:46:05.087Z,14.40
2023-03-05T06:49:27.422Z,14.27
2023-03-05T06:52:52.053Z,11.25
2023-03-05T06:56:16.750Z,12.47
2023-03-05T06:59:39.245Z,22.00
2023-03-05T07:03:01.620Z,21.08
2023-03-05T07:06:24.289Z,14.30
2023-03-05T07:09:50.376Z,13.45
2023-03-05T07:13:13.442Z,21.23
2023-03-05T07:16:36.165Z,20.80
2023-03-05T07:19:59.107Z,17.87
2023-03-05T07:23:21.242Z,19.02
2023-03-05T07:26:45.843Z,12.80
2023-03-05T07:30:10.744Z,19.27
2023-03-05T07:33:33.708Z,12.10
2023-03-05T07:36:56.265Z,12.15
2023-03-05T07:40:19.533Z,12.15
2023-03-05T07:43:43.193Z,14.32
2023-03-05T07:47:06.110Z,14.93
2023-03-05T07:50:28.870Z,16.95
2023-03-05T07:53:51.787Z,16.92
2023-03-05T07:57:16.108Z,15.13
2023-03-05T08:00:40.643Z,12.40
2023-03-05T08:04:04.053Z,14.90
2023-03-05T08:07:26.333Z,15.77
2023-03-05T08:10:48.803Z,17.05
2023-03-05T08:14:11.730Z,14.52
2023-03-05T08:17:35.872Z,17.52
2023-03-05T08:20:58.488Z,15.83
2023-03-05T08:24:20.993Z,20.15
2023-03-05T08:27:44.072Z,13.70
2023-03-05T08:31:10.245Z,13.57
2023-03-05T08:34:36.472Z,21.17
2023-03-05T08:37:59.134Z,17.90
2023-03-05T08:41:21.794Z,20.83
2023-03-05T08:44:46.512Z,18.20
2023-03-05T08:48:08.851Z,14.25
2023-03-05T08:51:33.281Z,15.75
2023-03-05T08:54:55.776Z,12.73
2023-03-05T08:58:18.931Z,15.13
2023-03-05T09:01:41.658Z,23.52
2023-03-05T09:05:04.938Z,17.08
2023-03-05T09:08:29.115Z,17.70
2023-03-05T09:11:52.124Z,13.47
2023-03-05T09:15:14.953Z,11.65
2023-03-05T09:18:40.189Z,11.25
2023-03-05T09:22:02.354Z,11.88
2023-03-05T09:25:26.298Z,16.60
2023-03-05T09:28:49.244Z,13.00
2023-03-05T09:32:12.003Z,11.93
2023-03-05T09:35:35.798Z,17.87
2023-03-05T09:38:58.832Z,16.40
2023-03-05T09:42:29.860Z,20.88
2023-03-05T09:46:07.433Z,16.13
2023-03-05T09:49:33.984Z,11.98
2023-03-05T09:52:57.495Z,12.65
2023-03-05T09:56:22.227Z,12.50
2023-03-05T09:59:48.482Z,9.57
2023-03-05T10:03:14.466Z,9.40
2023-03-05T10:06:37.657Z,9.95
2023-03-05T10:10:01.144Z,11.95
2023-03-05T10:13:25.672Z,9.02
2023-03-05T10:17:01.477Z,11.52
2023-03-05T10:20:36.617Z,10.20
2023-03-05T10:24:02.297Z,10.68
2023-03-05T10:27:34.040Z,12.55
2023-03-05T10:31:10.164Z,12.60
2023-03-05T10:34:46.178Z,13.57
2023-03-05T10:38:36.916Z,13.00
2023-03-05T10:42:06.186Z,12.32
2023-03-05T10:45:31.708Z,12.45
2023-03-05T10:48:56.186Z,14.80
2023-03-05T10:52:22.233Z,10.38
2023-03-05T10:55:45.682Z,10.97
2023-03-05T10:59:08.869Z,10.60
2023-03-05T11:02:31.673Z,9.82
2023-03-05T11:06:00.556Z,10.50
2023-03-05T11:09:29.244Z,11.80
2023-03-05T11:12:52.286Z,12.57
2023-03-05T11:16:20.865Z,11.07
2023-03-05T11:19:44.608Z,9.57
2023-03-05T11:23:11.932Z,11.48
2023-03-05T11:26:36.626Z,7.47
2023-03-05T11:30:00.285Z,11.23
2023-03-05T11:33:24.050Z,12.52
2023-03-05T11:37:03.664Z,11.00
2023-03-05T11:40:27.809Z,10.02
2023-03-05T11:43:53.576Z,11.20
2023-03-05T11:47:21.853Z,7.17
2023-03-05T11:50:50.114Z,8.80
2023-03-05T11:54:15.917Z,8.02
2023-03-05T11:57:43.211Z,10.02
2023-03-05T12:01:08.111Z,8.02
2023-03-05T12:04:32.247Z,8.87
2023-03-05T12:07:57.425Z,10.00
2023-03-05T12:11:25.572Z,8.77
2023-03-05T12:14:50.212Z,10.23
2023-03-05T12:18:29.025Z,10.90
2023-03-05T12:21:52.604Z,10.73
2023-03-05T12:25:26.977Z,10.52
2023-03-05T12:28:58.188Z,5.85
2023-03-05T12:33:01.604Z,13.05
2023-03-05T12:36:40.837Z,10.25
2023-03-05T12:40:15.879Z,12.07
2023-03-05T12:43:38.650Z,10.27
2023-03-05T12:47:23.768Z,13.38
2023-03-05T12:50:53.291Z,13.62
2023-03-05T12:54:40.538Z,8.52
2023-03-05T12:58:05.246Z,8.53
2023-03-05T13:01:33.990Z,11.07
2023-03-05T13:04:59.569Z,11.75
2023-03-05T13:08:24.614Z,10.63
2023-03-05T13:11:50.880Z,11.20
2023-03-05T13:15:16.882Z,7.20
2023-03-05T13:18:40.950Z,9.20
2023-03-05T13:22:08.390Z,5.43
2023-03-05T13:25:31.923Z,7.82
2023-03-05T13:29:12.094Z,7.43
2023-03-05T13:32:35.922Z,7.90
2023-03-05T13:36:02.490Z,7.35
2023-03-05T13:39:29.774Z,9.95
2023-03-05T13:42:56.420Z,7.00
2023-03-05T13:46:29.687Z,6.32
2023-03-05T13:50:00.210Z,8.10
2023-03-05T13:53:25.142Z,10.40
2023-03-05T13:56:54.893Z,9.80
2023-03-05T14:00:33.649Z,8.05
2023-03-05T14:04:01.234Z,9.10
2023-03-05T14:07:31.124Z,7.77
2023-03-05T14:10:54.702Z,8.10
2023-03-05T14:14:19.178Z,7.97
2023-03-05T14:17:43.382Z,9.27
2023-03-05T14:21:11.648Z,7.87
2023-03-05T14:24:35.878Z,8.53
2023-03-05T14:27:59.532Z,7.03
2023-03-05T14:31:24.127Z,7.65
2023-03-05T14:34:50.723Z,8.25
2023-03-05T14:38:20.876Z,6.15
2023-03-05T14:41:45.133Z,7.83
2023-03-05T14:45:16.344Z,7.45
2023-03-05T14:48:40.661Z,9.20
2023-03-05T14:52:07.240Z,13.32
2023-03-05T14:55:33.635Z,10.32
2023-03-05T14:58:58.116Z,13.50
2023-03-05T15:02:24.587Z,12.48
2023-03-05T15:05:50.687Z,16.67
2023-03-05T15:09:18.241Z,12.57
2023-03-05T15:12:47.269Z,11.15
2023-03-05T15:16:14.737Z,9.87
2023-03-05T15:19:40.220Z,11.45
2023-03-05T15:23:04.850Z,13.15
2023-03-05T15:26:29.904Z,10.70
2023-03-05T15:29:58.554Z,8.65
2023-03-05T15:33:24.439Z,8.07
2023-03-05T15:36:48.347Z,7.53
2023-03-05T15:40:14.009Z,9.38
2023-03-05T15:43:39.169Z,9.15
2023-03-05T15:47:06.364Z,8.55
2023-03-05T15:50:31.348Z,12.63
2023-03-05T15:53:58.580Z,14.57
2023-03-05T15:57:23.387Z,12.80
2023-03-05T16:00:49.570Z,12.77
2023-03-05T16:04:17.483Z,10.00
2023-03-05T16:07:46.214Z,9.40
2023-03-05T16:11:11.359Z,17.52
2023-03-05T16:14:39.115Z,16.70
2023-03-05T16:18:05.052Z,13.40
2023-03-05T16:21:32.921Z,9.77
2023-03-05T16:24:57.505Z,12.53
2023-03-05T16:28:21.057Z,12.73
2023-03-05T16:31:46.122Z,11.82
2023-03-05T16:35:12.569Z,8.38
2023-03-05T16:38:39.257Z,11.82
2023-03-05T16:42:05.079Z,9.63
2023-03-05T16:45:29.710Z,8.38
2023-03-05T16:48:54.905Z,9.27
2023-03-05T16:52:23.426Z,7.90
2023-03-05T16:55:51.429Z,9.18
2023-03-05T16:59:16.656Z,5.17
2023-03-05T17:02:42.793Z,6.28
2023-03-05T17:06:11.597Z,9.27
2023-03-05T17:09:40.852Z,20.95
2023-03-05T17:13:07.236Z,9.73
2023-03-05T17:16:32.628Z,12.17
2023-03-05T17:19:57.850Z,9.07
2023-03-05T17:23:22.846Z,9.40
2023-03-05T17:26:49.682Z,9.35
2023-03-05T17:30:16.177Z,8.45
2023-03-05T17:33:42.629Z,6.70
2023-03-05T17:37:08.189Z,7.28
2023-03-05T17:40:34.986Z,7.12
2023-03-05T17:44:03.521Z,6.85
2023-03-05T17:47:33.328Z,12.55
2023-03-05T17:50:57.415Z,9.50
2023-03-05T17:54:22.547Z,7.68
2023-03-05T17:57:48.575Z,8.02
2023-03-05T18:01:14.560Z,10.48
2023-03-05T18:04:41.606Z,9.20
2023-03-05T18:08:06.629Z,6.53
2023-03-05T18:11:32.128Z,6.05
2023-03-05T18:14:59.957Z,7.78
2023-03-05T18:18:28.829Z,6.72
2023-03-05T18:21:56.869Z,8.82
2023-03-05T18:25:22.151Z,8.60
2023-03-05T18:28:47.733Z,7.03
2023-03-05T18:32:13.824Z,8.07
2023-03-05T18:35:39.639Z,10.85
2023-03-05T18:39:09.196Z,6.68
2023-03-05T18:42:34.584Z,11.37
2023-03-05T18:45:59.162Z,9.23
2023-03-05T18:49:24.189Z,13.25
2023-03-05T18:52:54.401Z,9.93
2023-03-05T18:56:23.594Z,11.98
2023-03-05T18:59:49.309Z,11.83
2023-03-05T19:03:15.124Z,17.92
2023-03-05T19:06:40.540Z,14.25
2023-03-05T19:10:08.959Z,15.15
2023-03-05T19:13:40.371Z,15.55
2023-03-05T19:17:06.531Z,16.03
2023-03-05T19:20:31.470Z,17.10
2023-03-05T19:23:55.954Z,19.25
2023-03-05T19:27:20.810Z,20.90
2023-03-05T19:30:49.564Z,24.58
2023-03-05T19:34:14.716Z,30.07
2023-03-05T19:37:41.064Z,38.78
2023-03-05T19:41:10.225Z,40.97
2023-03-05T19:44:35.757Z,41.72
2023-03-05T19:48:05.864Z,35.03
2023-03-05T19:51:31.160Z,56.47
2023-03-05T19:55:00.227Z,42.53
2023-03-05T19:58:23.962Z,44.63
2023-03-05T20:01:49.126Z,49.97
2023-03-05T20:05:23.667Z,66.47
2023-03-05T20:08:48.254Z,33.50
2023-03-05T20:12:16.843Z,23.85
2023-03-05T20:15:40.564Z,21.40
2023-03-05T20:19:06.679Z,20.52
2023-03-05T20:22:33.030Z,27.50
2023-03-05T20:25:58.384Z,31.20
2023-03-05T20:29:25.586Z,34.65
2023-03-05T20:32:52.242Z,37.00
2023-03-05T20:36:17.750Z,45.03
2023-03-05T20:39:47.256Z,22.77
2023-03-05T20:43:13.370Z,23.80
2023-03-05T20:46:40.594Z,20.62
2023-03-05T20:50:07.946Z,18.60
2023-03-05T20:53:33.580Z,21.60
2023-03-05T20:57:00.676Z,24.05
2023-03-05T21:00:25.754Z,19.47
2023-03-05T21:03:50.251Z,17.90
2023-03-05T21:07:15.031Z,19.58
2023-03-05T21:10:39.705Z,14.00
2023-03-05T21:14:05.846Z,12.43
2023-03-05T21:17:29.845Z,19.60
2023-03-05T21:20:55.107Z,25.15
2023-03-05T21:24:24.541Z,39.67
2023-03-05T21:27:52.572Z,33.65
2023-03-05T21:31:21.010Z,20.35
2023-03-05T21:34:52.328Z,18.53
2023-03-05T21:38:16.032Z,18.87
2023-03-05T21:41:41.028Z,23.55
2023-03-05T21:45:05.658Z,22.00
2023-03-05T21:48:30.325Z,23.60
2023-03-05T21:52:05.420Z,19.70
2023-03-05T21:55:33.416Z,19.15
2023-03-05T21:58:56.208Z,18.87
2023-03-05T22:02:19.949Z,17.30
2023-03-05T22:05:44.814Z,14.57
2023-03-05T22:09:07.563Z,17.03
2023-03-05T22:12:43.735Z,15.88
2023-03-05T22:16:09.178Z,17.30
2023-03-05T22:19:31.918Z,17.62
2023-03-05T22:22:55.828Z,20.42
2023-03-05T22:26:18.438Z,23.07
2023-03-05T22:29:40.877Z,18.15
2023-03-05T22:33:03.834Z,18.80
2023-03-05T22:36:26.186Z,19.20
2023-03-05T22:39:50.143Z,17.50
2023-03-05T22:43:12.768Z,18.43
2023-03-05T22:46:35.395Z,18.67
2023-03-05T22:49:58.490Z,18.62
2023-03-05T22:53:21.453Z,17.25
2023-03-05T22:56:45.408Z,17.33
2023-03-05T23:00:09.294Z,15.87
2023-03-05T23:03:31.626Z,14.65
2023-03-05T23:06:57.825Z,18.92
2023-03-05T23:10:21.286Z,15.82
2023-03-05T23:13:45.485Z,13.95
2023-03-05T23:17:07.865Z,16.43
2023-03-05T23:20:31.649Z,15.95
2023-03-05T23:23:56.590Z,13.10
2023-03-05T23:27:19.550Z,13.30
2023-03-05T23:30:46.526Z,13.35
2023-03-05T23:34:09.291Z,14.00
2023-03-05T23:37:31.980Z,14.32
2023-03-05T23:40:55.738Z,14.15
2023-03-05T23:44:18.040Z,14.20
2023-03-05T23:47:41.934Z,13.50
2023-03-05T23:51:09.291Z,14.15
2023-03-05T23:54:32.428Z,11.52
2023-03-05T23:57:55.072Z,14.50
